createdAt,value
2023-05-05T00:01:31.318Z,9.50
2023-05-05T00:06:32.928Z,9.40
2023-05-05T00:11:34.591Z,9.30
2023-05-05T00:16:36.333Z,9.20
2023-05-05T00:21:37.925Z,9.10
2023-05-05T00:26:39.801Z,9.00
2023-05-05T00:31:41.281Z,8.90
2023-05-05T00:36:42.974Z,8.80
2023-05-05T00:41:44.595Z,8.70
2023-05-05T00:46:46.211Z,8.60
2023-05-05T00:51:47.893Z,8.60
2023-05-05T00:56:49.656Z,8.60
2023-05-05T01:01:51.369Z,8.60
2023-05-05T01:06:52.988Z,8.60
2023-05-05T01:11:54.657Z,8.60
2023-05-05T01:16:56.321Z,8.60
2023-05-05T01:22:00.355Z,8.50
2023-05-05T01:27:02.104Z,8.50
2023-05-05T01:32:03.828Z,8.50
2023-05-05T01:37:05.451Z,8.50
2023-05-05T01:42:07.124Z,8.50
2023-05-05T01:47:08.841Z,8.50
2023-05-05T01:52:10.482Z,8.40
2023-05-05T01:57:12.155Z,8.40
2023-05-05T02:02:13.829Z,8.40
2023-05-05T02:07:15.531Z,8.40
2023-05-05T02:12:17.129Z,8.40
2023-05-05T02:17:18.887Z,8.30
2023-05-05T02:22:20.499Z,8.30
2023-05-05T02:27:21.941Z,8.20
2023-05-05T02:32:23.609Z,8.20
2023-05-05T02:37:25.334Z,8.10
2023-05-05T02:42:26.859Z,8.10
2023-05-05T02:47:28.609Z,8.10
2023-05-05T02:52:30.218Z,8.10
2023-05-05T02:57:31.872Z,8.00
2023-05-05T03:02:33.641Z,8.00
2023-05-05T03:07:35.235Z,7.90
2023-05-05T03:12:36.739Z,7.90
2023-05-05T03:17:38.244Z,7.90
2023-05-05T03:22:39.960Z,7.80
2023-05-05T03:27:41.477Z,7.70
2023-05-05T03:32:42.981Z,7.60
2023-05-05T03:37:44.656Z,7.60
2023-05-05T03:42:46.107Z,7.50
2023-05-05T03:47:47.603Z,7.50
2023-05-05T03:52:49.198Z,7.50
2023-05-05T03:57:50.785Z,7.60
2023-05-05T04:02:52.472Z,7.60
2023-05-05T04:07:54.056Z,7.60
2023-05-05T04:12:55.971Z,7.70
2023-05-05T04:17:57.729Z,7.80
2023-05-05T04:22:59.244Z,7.90
2023-05-05T04:28:00.711Z,8.00
2023-05-05T04:33:02.525Z,8.00
2023-05-05T04:38:04.127Z,8.00
2023-05-05T04:43:05.787Z,8.00
2023-05-05T04:48:07.467Z,8.30
2023-05-05T04:53:09.285Z,8.50
2023-05-05T04:58:10.829Z,9.00
2023-05-05T05:03:12.701Z,9.80
2023-05-05T05:08:14.462Z,10.70
2023-05-05T05:13:16.343Z,11.80
2023-05-05T05:18:18.093Z,12.30
2023-05-05T05:23:19.865Z,12.90
2023-05-05T05:28:21.414Z,13.20
2023-05-05T05:33:23.103Z,13.70
2023-05-05T05:38:24.732Z,13.70
2023-05-05T05:43:26.399Z,13.60
2023-05-05T05:48:28.312Z,13.90
2023-05-05T05:53:30.048Z,14.20
2023-05-05T05:58:31.742Z,14.20
2023-05-05T06:03:33.540Z,14.30
2023-05-05T06:08:35.455Z,14.90
2023-05-05T06:13:37.054Z,15.10
2023-05-05T06:18:38.514Z,15.10
2023-05-05T06:23:40.273Z,15.60
2023-05-05T06:28:41.937Z,16.40
2023-05-05T06:33:43.439Z,17.30
2023-05-05T06:38:45.077Z,17.80
2023-05-05T06:43:46.766Z,18.10
2023-05-05T06:48:48.435Z,18.70
2023-05-05T06:53:49.927Z,19.60
2023-05-05T06:58:51.455Z,19.30
2023-05-05T07:04:11.522Z,19.30
2023-05-05T07:09:14.731Z,19.20
2023-05-05T07:14:17.414Z,19.70
2023-05-05T07:19:19.094Z,20.20
2023-05-05T07:24:20.741Z,20.20
2023-05-05T07:29:22.441Z,20.70
2023-05-05T07:34:24.058Z,21.10
2023-05-05T07:39:25.740Z,21.80
2023-05-05T07:44:27.401Z,22.40
2023-05-05T07:49:47.399Z,22.60
2023-05-05T07:55:07.559Z,23.00
2023-05-05T08:00:27.710Z,22.90
2023-05-05T08:05:49.365Z,22.60
2023-05-05T08:10:52.278Z,22.90
2023-05-05T08:15:54.009Z,23.10
2023-05-05T08:20:55.620Z,23.70
2023-05-05T08:25:57.272Z,23.90
2023-05-05T08:30:58.760Z,24.10
2023-05-05T08:36:00.363Z,24.40
2023-05-05T08:41:02.018Z,24.50
2023-05-05T08:46:03.649Z,24.50
2023-05-05T08:51:05.655Z,24.30
2023-05-05T08:56:07.490Z,24.50
2023-05-05T09:01:09.318Z,24.40
2023-05-05T09:06:10.953Z,24.50
2023-05-05T09:11:12.608Z,24.40
2023-05-05T09:16:14.297Z,24.20
2023-05-05T09:21:15.965Z,24.10
2023-05-05T09:26:17.654Z,23.90
2023-05-05T09:31:19.328Z,23.80
2023-05-05T09:36:20.961Z,23.90
2023-05-05T09:41:22.669Z,24.20
2023-05-05T09:46:24.345Z,24.20
2023-05-05T09:51:25.982Z,24.20
2023-05-05T09:56:27.688Z,23.80
2023-05-05T10:01:29.356Z,23.70
2023-05-05T10:06:30.855Z,23.40
2023-05-05T10:11:38.490Z,23.50
2023-05-05T10:16:40.246Z,23.40
2023-05-05T10:21:42.327Z,23.40
2023-05-05T10:27:12.121Z,23.50
2023-05-05T10:32:53.197Z,23.80
2023-05-05T10:38:00.332Z,23.70
2023-05-05T10:43:23.429Z,23.60
2023-05-05T10:48:51.580Z,23.50
2023-05-05T10:53:56.337Z,23.50
2023-05-05T10:59:00.455Z,23.90
2023-05-05T11:04:02.231Z,23.80
2023-05-05T11:09:29.959Z,23.50
2023-05-05T11:14:54.713Z,23.50
2023-05-05T11:20:15.001Z,23.70
2023-05-05T11:25:48.796Z,23.70
2023-05-05T11:31:08.747Z,23.70
2023-05-05T11:36:33.888Z,23.60
2023-05-05T11:42:10.801Z,23.70
2023-05-05T11:47:48.256Z,23.40
2023-05-05T11:53:03.590Z,23.10
2023-05-05T11:58:16.145Z,22.90
2023-05-05T12:03:21.091Z,23.10
2023-05-05T12:08:41.035Z,23.10
2023-05-05T12:14:09.156Z,23.30
2023-05-05T12:19:25.147Z,23.50
2023-05-05T12:24:46.714Z,23.30
2023-05-05T12:30:09.046Z,23.40
2023-05-05T12:35:29.516Z,23.40
2023-05-05T12:40:49.663Z,23.60
2023-05-05T12:45:51.642Z,23.80
2023-05-05T12:50:53.435Z,23.60
2023-05-05T12:55:55.106Z,23.80
2023-05-05T13:00:56.857Z,23.80
2023-05-05T13:05:58.545Z,23.60
2023-05-05T13:11:00.257Z,23.50
2023-05-05T13:16:01.807Z,23.50
2023-05-05T13:21:03.454Z,23.50
2023-05-05T13:26:05.197Z,23.60
2023-05-05T13:31:06.943Z,23.60
2023-05-05T13:36:08.981Z,23.30
2023-05-05T13:41:10.898Z,23.20
2023-05-05T13:46:19.222Z,23.10
2023-05-05T13:51:21.770Z,23.20
2023-05-05T13:56:23.687Z,23.50
2023-05-05T14:01:25.500Z,23.50
2023-05-05T14:06:27.123Z,23.40
2023-05-05T14:11:29.168Z,23.50
2023-05-05T14:16:30.961Z,23.20
2023-05-05T14:21:32.943Z,23.20
2023-05-05T14:26:34.845Z,23.20
2023-05-05T14:31:36.693Z,23.40
2023-05-05T14:36:38.490Z,23.40
2023-05-05T14:41:40.182Z,23.30
2023-05-05T14:46:43.566Z,23.40
2023-05-05T14:51:47.051Z,23.40
2023-05-05T14:56:48.749Z,23.30
2023-05-05T15:01:50.447Z,23.60
2023-05-05T15:06:52.255Z,23.60
2023-05-05T15:11:54.081Z,23.60
2023-05-05T15:16:56.296Z,23.80
2023-05-05T15:21:58.110Z,23.90
2023-05-05T15:26:59.671Z,23.80
2023-05-05T15:32:01.440Z,23.60
2023-05-05T15:37:03.288Z,23.30
2023-05-05T15:42:05.124Z,23.00
2023-05-05T15:47:06.788Z,22.80
2023-05-05T15:52:08.474Z,22.80
2023-05-05T15:57:09.974Z,22.90
2023-05-05T16:02:11.863Z,22.80
2023-05-05T16:07:13.580Z,22.60
2023-05-05T16:12:15.479Z,22.30
2023-05-05T16:17:17.268Z,22.10
2023-05-05T16:22:19.353Z,21.90
2023-05-05T16:27:20.937Z,21.70
2023-05-05T16:32:22.859Z,21.70
2023-05-05T16:37:24.610Z,21.70
2023-05-05T16:42:26.860Z,21.70
2023-05-05T16:47:28.536Z,21.80
2023-05-05T16:52:30.055Z,21.80
2023-05-05T16:57:31.552Z,21.80
2023-05-05T17:02:33.502Z,21.50
2023-05-05T17:07:35.206Z,21.20
2023-05-05T17:12:36.911Z,20.90
2023-05-05T17:17:39.287Z,20.70
2023-05-05T17:22:42.084Z,20.40
2023-05-05T17:27:43.906Z,20.30
2023-05-05T17:32:45.622Z,20.10
2023-05-05T17:37:47.471Z,20.00
2023-05-05T17:42:49.250Z,19.80
2023-05-05T17:47:51.251Z,19.70
2023-05-05T17:52:53.086Z,19.50
2023-05-05T17:57:54.517Z,19.30
2023-05-05T18:02:56.173Z,19.10
2023-05-05T18:07:57.731Z,19.00
2023-05-05T18:12:59.433Z,18.80
2023-05-05T18:18:01.140Z,18.70
2023-05-05T18:23:02.778Z,18.50
2023-05-05T18:28:04.449Z,18.40
2023-05-05T18:33:06.114Z,18.20
2023-05-05T18:38:08.071Z,18.10
2023-05-05T18:43:09.799Z,17.90
2023-05-05T18:48:30.007Z,17.60
2023-05-05T18:53:31.801Z,17.30
2023-05-05T18:58:33.575Z,17.10
2023-05-05T19:03:35.207Z,16.90
2023-05-05T19:08:36.723Z,16.70
2023-05-05T19:18:39.995Z,16.40
2023-05-05T19:23:41.576Z,16.30
2023-05-05T19:28:43.217Z,16.10
2023-05-05T19:33:49.278Z,16.00
2023-05-05T19:38:51.545Z,15.90
2023-05-05T19:43:55.984Z,15.70
2023-05-05T19:48:57.700Z,15.60
2023-05-05T19:53:59.500Z,15.50
2023-05-05T19:59:01.140Z,15.30
2023-05-05T20:04:02.806Z,15.20
2023-05-05T20:09:04.730Z,15.00
2023-05-05T20:14:06.231Z,14.90
2023-05-05T20:19:08.081Z,14.80
2023-05-05T20:24:09.757Z,14.70
2023-05-05T20:29:11.286Z,14.60
2023-05-05T20:34:12.864Z,14.50
2023-05-05T20:39:14.715Z,14.40
2023-05-05T20:44:16.301Z,14.30
2023-05-05T20:49:18.018Z,14.20
2023-05-05T20:54:19.544Z,14.10
2023-05-05T20:59:21.232Z,14.00
2023-05-05T21:04:24.207Z,13.90
2023-05-05T21:09:25.931Z,13.80
2023-05-05T21:14:27.530Z,13.60
2023-05-05T21:19:29.265Z,13.60
2023-05-05T21:24:31.163Z,13.50
2023-05-05T21:29:32.718Z,13.30
2023-05-05T21:34:34.371Z,13.30
2023-05-05T21:39:35.848Z,13.20
2023-05-05T21:44:37.566Z,13.10
2023-05-05T21:49:39.783Z,13.00
2023-05-05T21:54:42.523Z,12.90
2023-05-05T21:59:44.365Z,12.80
2023-05-05T22:04:45.975Z,12.80
2023-05-05T22:09:48.146Z,12.70
2023-05-05T22:14:49.758Z,12.60
2023-05-05T22:19:51.378Z,12.60
2023-05-05T22:24:53.099Z,12.50
2023-05-05T22:29:54.627Z,12.50
2023-05-05T22:34:56.263Z,12.40
2023-05-05T22:39:58.641Z,12.30
2023-05-05T22:45:00.388Z,12.30
2023-05-05T22:50:02.043Z,12.20
2023-05-05T22:55:03.582Z,12.10
2023-05-05T23:00:05.305Z,12.10
2023-05-05T23:05:07.277Z,12.10
2023-05-05T23:10:09.065Z,12.00
2023-05-05T23:15:10.789Z,12.00
2023-05-05T23:20:12.629Z,12.00
2023-05-05T23:25:14.307Z,12.00
2023-05-05T23:30:15.899Z,12.10
2023-05-05T23:35:17.905Z,12.00
2023-05-05T23:40:20.565Z,12.00
2023-05-05T23:45:22.202Z,12.00
2023-05-05T23:50:23.993Z,12.00
2023-05-05T23:55:25.745Z,11.90
